Crater Lake National Park, OR

8:38 AM PDT on September 29, 2016 (GMT -0700)
Chiloquin Williamson River | | Change Station
Active Advisory: Fire Weather Warning

Elev 4173 ft 42.58 °N, 121.86 °W | Updated 21 seconds ago

Clear
Clear
39.4 °F
Feels Like 39 °F
N
2.9
Wind Variable Wind from ENE
Gusts 4.9 mph

Today
High -- | Low -- °F
--% Chance of Precip.
Yesterday
High -- | Low -- °F
Precip. -- in
Pressure 30.01 in
Visibility 10.0 miles
Clouds Clear
Windchill 39 °F
Dew Point 36 °F
Humidity 87%
Rainfall 0.00 in
Snow Depth Not available.
7:03 AM 6:51 PM
Waning Crescent, 2% visible
METAR KLMT 291453Z 08003KT 10SM CLR 07/04 A3008 RMK AO2 SLP162 T00670039 53008
Pressure 30.01 in
Visibility 10.0 miles
Clouds Clear
Windchill 39 °F
Dew Point 36 °F
Humidity 87%
Rainfall 0.00 in
Snow Depth Not available.
7:03 AM 6:51 PM
Waning Crescent, 2% visible
METAR KLMT 291453Z 08003KT 10SM CLR 07/04 A3008 RMK AO2 SLP162 T00670039 53008

10-Day Weather Forecast

Almanac

Astronomy

Sep. 29, 2016 Rise Set
Actual Time
Civil Twilight
Nautical Twilight
Astronomical Twilight
Moon
Length of Visible Light
Length of Day
Tomorrow will be .
, % of the Moon is Illuminated

Today's Extremes

State Highs State Lows

Community

WunderPhotos

Upload Photos

1,942,499 photos uploaded!

WunderBlog® & News

Nearby

Air Quality

  Air Quality AQ Index Pollutant
Not available.

Snow Depth

Station Depth Elevation

Earthquake Activity

City Distance Mag. Time & Date
Minimum magnitude displayed is 2.5.

Coastal Water Temperatures

Place Temperature

Stations

Nearby Weather Stations

Station Location Temp. Windchill Dew Point Humidity Wind Precip. Elev Updated Type
                   

Watches & Warnings

Fire Weather Warning
Issued: 6:01 AM PDT Sep. 29, 2016 – National Weather Service

... Red flag warning remains in effect from 1 PM this afternoon to
7 PM PDT this evening for strong gusty wind with low humidity for
fire weather zones 285 and 624...

* impacts: strong... gusty wind with low relative humidity and
high fire danger will likely contribute to a significant
spread of any new and existing fires.

* Affected area: eastern half of fire weather zone 285 in
northern California. Southeastern portion of fire weather
zone 624 in southern Oregon.

* Counties affected: in northern CA... eastern Modoc. In south
central or... extreme southeastern Klamath and southwestern
lake.

* Wind: southwest 15 to 20 mph with gusts up to 35 mph.

* Humidity: 14 to 18 percent.

* View the hazard area in detail at
http://weather.Gov/Medford/hazard

Precautionary/preparedness actions...

* a red flag warning means that critical fire weather
conditions will occur shortly.

* Strong winds and low relative humidities will cause any
existing or new fires to spread very rapidly.

* One less spark... one less wildfire.